sensor_id;sensor_type;location;lat;lon;timestamp;P1;durP1;ratioP1;P2;durP2;ratioP2
27670;SDS011;15077;49.704;9.908;2022-07-03T00:00:11;0.38;;;0.38;;
27670;SDS011;15077;49.704;9.908;2022-07-03T00:02:37;0.50;;;0.50;;
27670;SDS011;15077;49.704;9.908;2022-07-03T00:05:03;0.70;;;0.40;;
27670;SDS011;15077;49.704;9.908;2022-07-03T00:07:30;0.40;;;0.40;;
27670;SDS011;15077;49.704;9.908;2022-07-03T00:09:57;0.60;;;0.50;;
27670;SDS011;15077;49.704;9.908;2022-07-03T00:12:24;0.60;;;0.40;;
27670;SDS011;15077;49.704;9.908;2022-07-03T00:14:50;0.40;;;0.40;;
27670;SDS011;15077;49.704;9.908;2022-07-03T00:17:16;0.93;;;0.50;;
27670;SDS011;15077;49.704;9.908;2022-07-03T00:19:42;0.75;;;0.43;;
27670;SDS011;15077;49.704;9.908;2022-07-03T00:22:10;0.45;;;0.32;;
27670;SDS011;15077;49.704;9.908;2022-07-03T00:24:46;0.60;;;0.40;;
27670;SDS011;15077;49.704;9.908;2022-07-03T00:27:19;0.60;;;0.40;;
27670;SDS011;15077;49.704;9.908;2022-07-03T00:32:22;0.57;;;0.40;;
27670;SDS011;15077;49.704;9.908;2022-07-03T00:34:53;0.50;;;0.45;;
27670;SDS011;15077;49.704;9.908;2022-07-03T00:37:20;0.50;;;0.40;;
27670;SDS011;15077;49.704;9.908;2022-07-03T00:39:48;0.45;;;0.40;;
27670;SDS011;15077;49.704;9.908;2022-07-03T00:42:15;0.55;;;0.52;;
27670;SDS011;15077;49.704;9.908;2022-07-03T00:44:46;0.50;;;0.50;;
27670;SDS011;15077;49.704;9.908;2022-07-03T00:47:19;0.73;;;0.55;;
27670;SDS011;15077;49.704;9.908;2022-07-03T00:49:50;0.57;;;0.50;;
27670;SDS011;15077;49.704;9.908;2022-07-03T00:52:22;0.65;;;0.40;;
27670;SDS011;15077;49.704;9.908;2022-07-03T00:54:56;0.70;;;0.40;;
27670;SDS011;15077;49.704;9.908;2022-07-03T00:57:24;1.60;;;0.50;;
27670;SDS011;15077;49.704;9.908;2022-07-03T00:59:55;1.83;;;0.60;;
27670;SDS011;15077;49.704;9.908;2022-07-03T01:05:15;0.55;;;0.40;;
27670;SDS011;15077;49.704;9.908;2022-07-03T01:25:03;0.60;;;0.50;;
27670;SDS011;15077;49.704;9.908;2022-07-03T01:33:16;0.35;;;0.35;;
27670;SDS011;15077;49.704;9.908;2022-07-03T01:35:56;0.80;;;0.50;;
27670;SDS011;15077;49.704;9.908;2022-07-03T01:38:32;0.80;;;0.60;;
27670;SDS011;15077;49.704;9.908;2022-07-03T01:41:04;0.90;;;0.60;;
27670;SDS011;15077;49.704;9.908;2022-07-03T01:43:36;0.55;;;0.40;;
27670;SDS011;15077;49.704;9.908;2022-07-03T01:46:09;0.57;;;0.50;;
27670;SDS011;15077;49.704;9.908;2022-07-03T01:48:38;0.70;;;0.40;;
27670;SDS011;15077;49.704;9.908;2022-07-03T01:51:09;0.55;;;0.50;;
27670;SDS011;15077;49.704;9.908;2022-07-03T01:53:49;1.17;;;0.40;;
27670;SDS011;15077;49.704;9.908;2022-07-03T01:56:18;0.50;;;0.50;;
27670;SDS011;15077;49.704;9.908;2022-07-03T01:58:47;0.60;;;0.50;;
27670;SDS011;15077;49.704;9.908;2022-07-03T02:04:20;0.70;;;0.40;;
27670;SDS011;15077;49.704;9.908;2022-07-03T02:09:44;0.32;;;0.32;;
27670;SDS011;15077;49.704;9.908;2022-07-03T02:12:34;0.68;;;0.57;;
27670;SDS011;15077;49.704;9.908;2022-07-03T02:15:10;0.70;;;0.50;;
27670;SDS011;15077;49.704;9.908;2022-07-03T02:17:42;0.70;;;0.50;;
27670;SDS011;15077;49.704;9.908;2022-07-03T02:20:12;1.00;;;0.52;;
27670;SDS011;15077;49.704;9.908;2022-07-03T02:22:43;0.80;;;0.60;;
27670;SDS011;15077;49.704;9.908;2022-07-03T02:25:26;0.50;;;0.47;;
27670;SDS011;15077;49.704;9.908;2022-07-03T02:28:06;0.52;;;0.52;;
27670;SDS011;15077;49.704;9.908;2022-07-03T02:30:55;0.63;;;0.50;;
27670;SDS011;15077;49.704;9.908;2022-07-03T02:33:27;0.40;;;0.40;;
27670;SDS011;15077;49.704;9.908;2022-07-03T02:35:57;0.50;;;0.50;;
27670;SDS011;15077;49.704;9.908;2022-07-03T02:38:25;0.60;;;0.60;;
27670;SDS011;15077;49.704;9.908;2022-07-03T02:49:42;0.63;;;0.63;;
27670;SDS011;15077;49.704;9.908;2022-07-03T03:01:20;1.20;;;0.82;;
27670;SDS011;15077;49.704;9.908;2022-07-03T03:04:07;1.00;;;0.50;;
27670;SDS011;15077;49.704;9.908;2022-07-03T03:06:48;0.63;;;0.50;;
27670;SDS011;15077;49.704;9.908;2022-07-03T03:09:20;1.33;;;0.60;;
27670;SDS011;15077;49.704;9.908;2022-07-03T03:12:00;0.70;;;0.52;;
27670;SDS011;15077;49.704;9.908;2022-07-03T03:14:29;0.77;;;0.50;;
27670;SDS011;15077;49.704;9.908;2022-07-03T03:17:08;1.25;;;0.50;;
27670;SDS011;15077;49.704;9.908;2022-07-03T03:19:45;1.27;;;0.68;;
27670;SDS011;15077;49.704;9.908;2022-07-03T03:24:54;0.55;;;0.47;;
27670;SDS011;15077;49.704;9.908;2022-07-03T03:27:20;1.15;;;0.40;;
27670;SDS011;15077;49.704;9.908;2022-07-03T03:29:47;0.65;;;0.50;;
27670;SDS011;15077;49.704;9.908;2022-07-03T03:32:14;0.70;;;0.50;;
27670;SDS011;15077;49.704;9.908;2022-07-03T03:34:42;0.85;;;0.50;;
27670;SDS011;15077;49.704;9.908;2022-07-03T03:37:10;0.50;;;0.50;;
27670;SDS011;15077;49.704;9.908;2022-07-03T03:39:38;0.55;;;0.40;;
27670;SDS011;15077;49.704;9.908;2022-07-03T03:42:05;0.95;;;0.43;;
27670;SDS011;15077;49.704;9.908;2022-07-03T03:44:31;0.43;;;0.40;;
27670;SDS011;15077;49.704;9.908;2022-07-03T03:46:57;0.65;;;0.50;;
27670;SDS011;15077;49.704;9.908;2022-07-03T03:49:22;0.65;;;0.40;;
27670;SDS011;15077;49.704;9.908;2022-07-03T03:51:48;0.68;;;0.55;;
27670;SDS011;15077;49.704;9.908;2022-07-03T03:54:14;0.73;;;0.57;;
27670;SDS011;15077;49.704;9.908;2022-07-03T03:56:42;0.43;;;0.40;;
27670;SDS011;15077;49.704;9.908;2022-07-03T03:59:09;1.60;;;0.73;;
27670;SDS011;15077;49.704;9.908;2022-07-03T04:01:35;0.60;;;0.50;;
27670;SDS011;15077;49.704;9.908;2022-07-03T04:04:01;0.60;;;0.50;;
27670;SDS011;15077;49.704;9.908;2022-07-03T04:06:27;0.82;;;0.50;;
27670;SDS011;15077;49.704;9.908;2022-07-03T04:08:53;0.85;;;0.50;;
27670;SDS011;15077;49.704;9.908;2022-07-03T04:11:18;0.80;;;0.50;;
27670;SDS011;15077;49.704;9.908;2022-07-03T04:13:45;0.65;;;0.40;;
27670;SDS011;15077;49.704;9.908;2022-07-03T04:16:11;0.90;;;0.55;;
27670;SDS011;15077;49.704;9.908;2022-07-03T04:18:37;0.82;;;0.70;;
27670;SDS011;15077;49.704;9.908;2022-07-03T04:21:04;0.65;;;0.60;;
27670;SDS011;15077;49.704;9.908;2022-07-03T04:23:30;0.60;;;0.40;;
27670;SDS011;15077;49.704;9.908;2022-07-03T04:26:02;1.42;;;0.88;;
27670;SDS011;15077;49.704;9.908;2022-07-03T04:28:31;0.90;;;0.60;;
27670;SDS011;15077;49.704;9.908;2022-07-03T04:30:58;0.93;;;0.50;;
27670;SDS011;15077;49.704;9.908;2022-07-03T04:33:24;0.70;;;0.52;;
27670;SDS011;15077;49.704;9.908;2022-07-03T04:35:50;0.80;;;0.57;;
27670;SDS011;15077;49.704;9.908;2022-07-03T04:38:16;0.93;;;0.70;;
27670;SDS011;15077;49.704;9.908;2022-07-03T04:40:42;1.02;;;0.88;;
27670;SDS011;15077;49.704;9.908;2022-07-03T04:43:08;0.80;;;0.70;;
27670;SDS011;15077;49.704;9.908;2022-07-03T04:45:33;1.30;;;0.82;;
27670;SDS011;15077;49.704;9.908;2022-07-03T04:47:59;0.85;;;0.60;;
27670;SDS011;15077;49.704;9.908;2022-07-03T04:50:25;0.50;;;0.50;;
27670;SDS011;15077;49.704;9.908;2022-07-03T04:52:51;0.57;;;0.52;;
27670;SDS011;15077;49.704;9.908;2022-07-03T04:57:45;0.60;;;0.50;;
27670;SDS011;15077;49.704;9.908;2022-07-03T05:00:11;0.93;;;0.70;;
27670;SDS011;15077;49.704;9.908;2022-07-03T05:02:37;2.15;;;1.10;;
27670;SDS011;15077;49.704;9.908;2022-07-03T05:05:03;1.30;;;0.90;;
27670;SDS011;15077;49.704;9.908;2022-07-03T05:07:29;2.67;;;1.05;;
27670;SDS011;15077;49.704;9.908;2022-07-03T05:09:55;1.27;;;1.00;;
27670;SDS011;15077;49.704;9.908;2022-07-03T05:12:21;1.80;;;0.90;;
27670;SDS011;15077;49.704;9.908;2022-07-03T05:14:47;0.95;;;0.80;;
27670;SDS011;15077;49.704;9.908;2022-07-03T05:17:12;1.58;;;1.15;;
27670;SDS011;15077;49.704;9.908;2022-07-03T05:19:38;1.08;;;0.55;;
27670;SDS011;15077;49.704;9.908;2022-07-03T05:22:04;1.05;;;0.70;;
27670;SDS011;15077;49.704;9.908;2022-07-03T05:24:30;2.10;;;1.00;;
27670;SDS011;15077;49.704;9.908;2022-07-03T05:26:56;1.17;;;1.00;;
27670;SDS011;15077;49.704;9.908;2022-07-03T05:29:21;1.30;;;1.02;;
27670;SDS011;15077;49.704;9.908;2022-07-03T05:31:47;2.92;;;1.02;;
27670;SDS011;15077;49.704;9.908;2022-07-03T05:34:13;1.55;;;0.80;;
27670;SDS011;15077;49.704;9.908;2022-07-03T05:36:39;0.80;;;0.63;;
27670;SDS011;15077;49.704;9.908;2022-07-03T05:39:06;0.98;;;0.88;;
27670;SDS011;15077;49.704;9.908;2022-07-03T05:41:51;1.50;;;1.20;;
27670;SDS011;15077;49.704;9.908;2022-07-03T05:44:16;2.08;;;1.40;;
27670;SDS011;15077;49.704;9.908;2022-07-03T05:46:42;1.33;;;1.08;;
27670;SDS011;15077;49.704;9.908;2022-07-03T05:49:08;3.13;;;2.13;;
27670;SDS011;15077;49.704;9.908;2022-07-03T05:51:34;1.35;;;1.10;;
27670;SDS011;15077;49.704;9.908;2022-07-03T05:54:02;1.45;;;1.00;;
27670;SDS011;15077;49.704;9.908;2022-07-03T05:56:28;2.17;;;0.98;;
27670;SDS011;15077;49.704;9.908;2022-07-03T05:58:53;2.15;;;0.90;;
27670;SDS011;15077;49.704;9.908;2022-07-03T06:01:19;1.00;;;0.70;;
27670;SDS011;15077;49.704;9.908;2022-07-03T06:03:45;0.63;;;0.60;;
27670;SDS011;15077;49.704;9.908;2022-07-03T06:06:11;2.58;;;0.82;;
27670;SDS011;15077;49.704;9.908;2022-07-03T06:08:36;1.58;;;1.00;;
27670;SDS011;15077;49.704;9.908;2022-07-03T06:11:02;1.52;;;0.82;;
27670;SDS011;15077;49.704;9.908;2022-07-03T06:13:28;1.08;;;0.80;;
27670;SDS011;15077;49.704;9.908;2022-07-03T06:15:55;0.68;;;0.52;;
27670;SDS011;15077;49.704;9.908;2022-07-03T06:18:20;1.15;;;0.63;;
27670;SDS011;15077;49.704;9.908;2022-07-03T06:20:46;1.00;;;0.90;;
27670;SDS011;15077;49.704;9.908;2022-07-03T06:23:14;0.90;;;0.70;;
27670;SDS011;15077;49.704;9.908;2022-07-03T06:25:40;0.98;;;0.82;;
27670;SDS011;15077;49.704;9.908;2022-07-03T06:28:06;2.15;;;0.98;;
27670;SDS011;15077;49.704;9.908;2022-07-03T06:30:32;1.50;;;1.10;;
27670;SDS011;15077;49.704;9.908;2022-07-03T06:32:58;1.70;;;0.90;;
27670;SDS011;15077;49.704;9.908;2022-07-03T06:35:24;1.33;;;0.98;;
27670;SDS011;15077;49.704;9.908;2022-07-03T06:37:50;1.35;;;1.10;;
27670;SDS011;15077;49.704;9.908;2022-07-03T06:40:15;0.95;;;0.80;;
27670;SDS011;15077;49.704;9.908;2022-07-03T06:42:42;1.48;;;1.00;;
27670;SDS011;15077;49.704;9.908;2022-07-03T06:45:08;1.10;;;1.00;;
27670;SDS011;15077;49.704;9.908;2022-07-03T06:47:38;1.30;;;1.10;;
27670;SDS011;15077;49.704;9.908;2022-07-03T06:50:05;1.67;;;1.10;;
27670;SDS011;15077;49.704;9.908;2022-07-03T06:52:32;1.88;;;1.25;;
27670;SDS011;15077;49.704;9.908;2022-07-03T06:54:58;2.20;;;1.05;;
27670;SDS011;15077;49.704;9.908;2022-07-03T06:57:25;1.67;;;1.10;;
27670;SDS011;15077;49.704;9.908;2022-07-03T06:59:51;3.10;;;1.45;;
27670;SDS011;15077;49.704;9.908;2022-07-03T07:02:16;1.33;;;1.15;;
27670;SDS011;15077;49.704;9.908;2022-07-03T07:04:42;1.27;;;0.80;;
27670;SDS011;15077;49.704;9.908;2022-07-03T07:07:09;1.30;;;1.00;;
27670;SDS011;15077;49.704;9.908;2022-07-03T07:09:35;1.60;;;1.20;;
27670;SDS011;15077;49.704;9.908;2022-07-03T07:12:02;1.20;;;0.95;;
27670;SDS011;15077;49.704;9.908;2022-07-03T07:14:28;1.20;;;1.10;;
27670;SDS011;15077;49.704;9.908;2022-07-03T07:16:54;2.55;;;1.35;;
27670;SDS011;15077;49.704;9.908;2022-07-03T07:19:19;1.30;;;0.90;;
27670;SDS011;15077;49.704;9.908;2022-07-03T07:21:45;2.65;;;1.00;;
27670;SDS011;15077;49.704;9.908;2022-07-03T07:24:11;1.42;;;1.10;;
27670;SDS011;15077;49.704;9.908;2022-07-03T07:26:37;1.88;;;0.93;;
27670;SDS011;15077;49.704;9.908;2022-07-03T07:29:04;1.30;;;1.00;;
27670;SDS011;15077;49.704;9.908;2022-07-03T07:31:30;1.38;;;1.05;;
27670;SDS011;15077;49.704;9.908;2022-07-03T07:33:56;0.95;;;0.70;;
27670;SDS011;15077;49.704;9.908;2022-07-03T07:36:21;1.38;;;0.90;;
27670;SDS011;15077;49.704;9.908;2022-07-03T07:38:47;1.33;;;1.23;;
27670;SDS011;15077;49.704;9.908;2022-07-03T07:41:13;1.80;;;1.20;;
27670;SDS011;15077;49.704;9.908;2022-07-03T07:43:39;1.35;;;0.98;;
27670;SDS011;15077;49.704;9.908;2022-07-03T07:46:10;1.45;;;0.90;;
27670;SDS011;15077;49.704;9.908;2022-07-03T07:48:36;1.23;;;1.00;;
27670;SDS011;15077;49.704;9.908;2022-07-03T07:51:03;1.45;;;0.80;;
27670;SDS011;15077;49.704;9.908;2022-07-03T07:53:28;1.33;;;1.08;;
27670;SDS011;15077;49.704;9.908;2022-07-03T07:55:54;1.77;;;1.00;;
27670;SDS011;15077;49.704;9.908;2022-07-03T07:58:20;1.80;;;1.00;;
27670;SDS011;15077;49.704;9.908;2022-07-03T08:00:47;1.23;;;1.00;;
27670;SDS011;15077;49.704;9.908;2022-07-03T08:03:32;1.85;;;1.00;;
27670;SDS011;15077;49.704;9.908;2022-07-03T08:06:17;2.17;;;0.90;;
27670;SDS011;15077;49.704;9.908;2022-07-03T08:08:43;1.70;;;0.85;;
27670;SDS011;15077;49.704;9.908;2022-07-03T08:11:09;0.85;;;0.80;;
27670;SDS011;15077;49.704;9.908;2022-07-03T08:13:35;1.20;;;0.90;;
27670;SDS011;15077;49.704;9.908;2022-07-03T08:16:01;1.40;;;0.88;;
27670;SDS011;15077;49.704;9.908;2022-07-03T08:18:27;1.15;;;1.00;;
27670;SDS011;15077;49.704;9.908;2022-07-03T08:20:53;1.20;;;1.10;;
27670;SDS011;15077;49.704;9.908;2022-07-03T08:23:20;1.17;;;0.80;;
27670;SDS011;15077;49.704;9.908;2022-07-03T08:25:46;1.20;;;0.80;;
27670;SDS011;15077;49.704;9.908;2022-07-03T08:28:13;1.35;;;0.85;;
27670;SDS011;15077;49.704;9.908;2022-07-03T08:30:40;1.13;;;0.98;;
27670;SDS011;15077;49.704;9.908;2022-07-03T08:33:06;0.75;;;0.75;;
27670;SDS011;15077;49.704;9.908;2022-07-03T08:35:32;1.90;;;1.05;;
27670;SDS011;15077;49.704;9.908;2022-07-03T08:38:01;2.05;;;0.70;;
27670;SDS011;15077;49.704;9.908;2022-07-03T08:40:27;0.73;;;0.60;;
27670;SDS011;15077;49.704;9.908;2022-07-03T08:42:57;1.10;;;0.90;;
27670;SDS011;15077;49.704;9.908;2022-07-03T08:45:30;1.00;;;0.77;;
27670;SDS011;15077;49.704;9.908;2022-07-03T08:47:59;0.88;;;0.60;;
27670;SDS011;15077;49.704;9.908;2022-07-03T08:50:27;0.90;;;0.70;;
27670;SDS011;15077;49.704;9.908;2022-07-03T08:52:54;0.73;;;0.55;;
27670;SDS011;15077;49.704;9.908;2022-07-03T08:55:20;0.88;;;0.80;;
27670;SDS011;15077;49.704;9.908;2022-07-03T08:57:47;1.05;;;0.77;;
27670;SDS011;15077;49.704;9.908;2022-07-03T09:00:20;1.55;;;0.88;;
27670;SDS011;15077;49.704;9.908;2022-07-03T09:05:15;0.82;;;0.63;;
27670;SDS011;15077;49.704;9.908;2022-07-03T09:07:43;1.23;;;0.60;;
27670;SDS011;15077;49.704;9.908;2022-07-03T09:10:12;0.68;;;0.60;;
27670;SDS011;15077;49.704;9.908;2022-07-03T09:12:42;1.15;;;0.70;;
27670;SDS011;15077;49.704;9.908;2022-07-03T09:15:13;0.73;;;0.60;;
27670;SDS011;15077;49.704;9.908;2022-07-03T09:17:39;0.80;;;0.60;;
27670;SDS011;15077;49.704;9.908;2022-07-03T09:20:20;0.93;;;0.60;;
27670;SDS011;15077;49.704;9.908;2022-07-03T09:22:55;1.00;;;0.77;;
27670;SDS011;15077;49.704;9.908;2022-07-03T09:25:51;1.15;;;0.50;;
27670;SDS011;15077;49.704;9.908;2022-07-03T09:28:58;0.85;;;0.70;;
27670;SDS011;15077;49.704;9.908;2022-07-03T09:31:24;1.17;;;0.50;;
27670;SDS011;15077;49.704;9.908;2022-07-03T09:39:30;0.80;;;0.60;;
27670;SDS011;15077;49.704;9.908;2022-07-03T09:42:02;0.70;;;0.50;;
27670;SDS011;15077;49.704;9.908;2022-07-03T09:44:42;0.52;;;0.52;;
27670;SDS011;15077;49.704;9.908;2022-07-03T09:57:39;1.08;;;0.52;;
27670;SDS011;15077;49.704;9.908;2022-07-03T10:00:25;1.00;;;0.73;;
27670;SDS011;15077;49.704;9.908;2022-07-03T10:03:06;0.52;;;0.47;;
27670;SDS011;15077;49.704;9.908;2022-07-03T10:05:38;0.57;;;0.57;;
27670;SDS011;15077;49.704;9.908;2022-07-03T10:08:10;0.90;;;0.60;;
27670;SDS011;15077;49.704;9.908;2022-07-03T10:10:47;0.60;;;0.40;;
27670;SDS011;15077;49.704;9.908;2022-07-03T10:13:16;0.47;;;0.40;;
27670;SDS011;15077;49.704;9.908;2022-07-03T10:15:42;0.43;;;0.40;;
27670;SDS011;15077;49.704;9.908;2022-07-03T10:18:10;5.47;;;0.60;;
27670;SDS011;15077;49.704;9.908;2022-07-03T10:20:49;1.17;;;0.50;;
27670;SDS011;15077;49.704;9.908;2022-07-03T10:23:15;0.68;;;0.40;;
27670;SDS011;15077;49.704;9.908;2022-07-03T10:25:45;0.50;;;0.40;;
27670;SDS011;15077;49.704;9.908;2022-07-03T10:28:15;0.60;;;0.50;;
27670;SDS011;15077;49.704;9.908;2022-07-03T10:30:46;0.70;;;0.50;;
27670;SDS011;15077;49.704;9.908;2022-07-03T10:33:14;0.50;;;0.43;;
27670;SDS011;15077;49.704;9.908;2022-07-03T10:35:42;0.82;;;0.50;;
27670;SDS011;15077;49.704;9.908;2022-07-03T10:41:34;1.30;;;0.40;;
27670;SDS011;15077;49.704;9.908;2022-07-03T10:44:20;2.30;;;0.50;;
27670;SDS011;15077;49.704;9.908;2022-07-03T10:47:05;0.60;;;0.45;;
27670;SDS011;15077;49.704;9.908;2022-07-03T10:49:30;1.73;;;0.50;;
27670;SDS011;15077;49.704;9.908;2022-07-03T10:51:57;1.20;;;0.40;;
27670;SDS011;15077;49.704;9.908;2022-07-03T10:54:31;0.45;;;0.38;;
27670;SDS011;15077;49.704;9.908;2022-07-03T10:57:08;1.15;;;0.60;;
27670;SDS011;15077;49.704;9.908;2022-07-03T11:07:25;3.92;;;0.70;;
27670;SDS011;15077;49.704;9.908;2022-07-03T11:15:29;0.93;;;0.47;;
27670;SDS011;15077;49.704;9.908;2022-07-03T11:25:57;1.92;;;0.60;;
27670;SDS011;15077;49.704;9.908;2022-07-03T11:41:11;0.50;;;0.30;;
27670;SDS011;15077;49.704;9.908;2022-07-03T11:43:55;0.70;;;0.40;;
27670;SDS011;15077;49.704;9.908;2022-07-03T11:46:34;0.43;;;0.40;;
27670;SDS011;15077;49.704;9.908;2022-07-03T11:49:11;0.30;;;0.30;;
27670;SDS011;15077;49.704;9.908;2022-07-03T11:51:57;0.50;;;0.45;;
27670;SDS011;15077;49.704;9.908;2022-07-03T11:54:29;0.98;;;0.40;;
27670;SDS011;15077;49.704;9.908;2022-07-03T11:56:59;0.87;;;0.40;;
27670;SDS011;15077;49.704;9.908;2022-07-03T11:59:26;0.60;;;0.40;;
27670;SDS011;15077;49.704;9.908;2022-07-03T12:01:52;1.85;;;0.30;;
27670;SDS011;15077;49.704;9.908;2022-07-03T12:04:28;0.40;;;0.30;;
27670;SDS011;15077;49.704;9.908;2022-07-03T12:06:57;0.50;;;0.40;;
27670;SDS011;15077;49.704;9.908;2022-07-03T12:09:33;0.40;;;0.40;;
27670;SDS011;15077;49.704;9.908;2022-07-03T12:17:14;0.47;;;0.30;;
27670;SDS011;15077;49.704;9.908;2022-07-03T12:19:50;0.40;;;0.30;;
27670;SDS011;15077;49.704;9.908;2022-07-03T12:27:39;1.27;;;0.40;;
27670;SDS011;15077;49.704;9.908;2022-07-03T12:30:09;0.57;;;0.40;;
27670;SDS011;15077;49.704;9.908;2022-07-03T12:32:47;0.43;;;0.30;;
27670;SDS011;15077;49.704;9.908;2022-07-03T12:35:13;0.60;;;0.50;;
27670;SDS011;15077;49.704;9.908;2022-07-03T12:37:46;0.40;;;0.40;;
27670;SDS011;15077;49.704;9.908;2022-07-03T12:40:13;1.23;;;0.40;;
27670;SDS011;15077;49.704;9.908;2022-07-03T12:42:46;0.47;;;0.43;;
27670;SDS011;15077;49.704;9.908;2022-07-03T12:45:19;0.65;;;0.30;;
27670;SDS011;15077;49.704;9.908;2022-07-03T12:47:59;1.00;;;0.40;;
27670;SDS011;15077;49.704;9.908;2022-07-03T12:50:44;0.63;;;0.40;;
27670;SDS011;15077;49.704;9.908;2022-07-03T12:53:11;0.73;;;0.50;;
27670;SDS011;15077;49.704;9.908;2022-07-03T12:56:02;2.10;;;0.85;;
27670;SDS011;15077;49.704;9.908;2022-07-03T12:58:28;1.02;;;0.45;;
27670;SDS011;15077;49.704;9.908;2022-07-03T13:01:32;0.55;;;0.40;;
27670;SDS011;15077;49.704;9.908;2022-07-03T13:04:01;0.73;;;0.43;;
27670;SDS011;15077;49.704;9.908;2022-07-03T13:06:27;0.60;;;0.32;;
27670;SDS011;15077;49.704;9.908;2022-07-03T13:08:59;1.02;;;0.43;;
27670;SDS011;15077;49.704;9.908;2022-07-03T13:14:17;0.63;;;0.45;;
27670;SDS011;15077;49.704;9.908;2022-07-03T13:16:47;1.10;;;0.60;;
27670;SDS011;15077;49.704;9.908;2022-07-03T13:19:28;0.30;;;0.20;;
27670;SDS011;15077;49.704;9.908;2022-07-03T13:21:55;0.45;;;0.40;;
27670;SDS011;15077;49.704;9.908;2022-07-03T13:24:23;0.47;;;0.30;;
27670;SDS011;15077;49.704;9.908;2022-07-03T13:26:50;0.50;;;0.40;;
27670;SDS011;15077;49.704;9.908;2022-07-03T13:29:17;0.75;;;0.35;;
27670;SDS011;15077;49.704;9.908;2022-07-03T13:31:43;1.10;;;0.70;;
27670;SDS011;15077;49.704;9.908;2022-07-03T13:34:09;0.70;;;0.40;;
27670;SDS011;15077;49.704;9.908;2022-07-03T13:36:36;0.38;;;0.30;;
27670;SDS011;15077;49.704;9.908;2022-07-03T13:39:01;1.05;;;0.50;;
27670;SDS011;15077;49.704;9.908;2022-07-03T13:41:29;0.30;;;0.30;;
27670;SDS011;15077;49.704;9.908;2022-07-03T13:43:55;0.73;;;0.40;;
27670;SDS011;15077;49.704;9.908;2022-07-03T13:46:22;0.88;;;0.40;;
27670;SDS011;15077;49.704;9.908;2022-07-03T13:48:51;0.40;;;0.30;;
27670;SDS011;15077;49.704;9.908;2022-07-03T13:51:18;0.65;;;0.50;;
27670;SDS011;15077;49.704;9.908;2022-07-03T13:53:45;0.55;;;0.47;;
27670;SDS011;15077;49.704;9.908;2022-07-03T13:56:11;0.70;;;0.40;;
27670;SDS011;15077;49.704;9.908;2022-07-03T13:58:40;1.70;;;0.45;;
27670;SDS011;15077;49.704;9.908;2022-07-03T14:01:06;0.73;;;0.30;;
27670;SDS011;15077;49.704;9.908;2022-07-03T14:03:32;1.00;;;0.40;;
27670;SDS011;15077;49.704;9.908;2022-07-03T14:05:57;0.50;;;0.35;;
27670;SDS011;15077;49.704;9.908;2022-07-03T14:08:23;0.40;;;0.38;;
27670;SDS011;15077;49.704;9.908;2022-07-03T14:10:49;0.50;;;0.40;;
27670;SDS011;15077;49.704;9.908;2022-07-03T14:13:15;0.52;;;0.32;;
27670;SDS011;15077;49.704;9.908;2022-07-03T14:15:42;0.35;;;0.30;;
27670;SDS011;15077;49.704;9.908;2022-07-03T14:18:08;0.57;;;0.40;;
27670;SDS011;15077;49.704;9.908;2022-07-03T14:20:34;0.30;;;0.30;;
27670;SDS011;15077;49.704;9.908;2022-07-03T14:22:59;0.65;;;0.40;;
27670;SDS011;15077;49.704;9.908;2022-07-03T14:25:25;0.90;;;0.40;;
27670;SDS011;15077;49.704;9.908;2022-07-03T14:27:51;0.73;;;0.40;;
27670;SDS011;15077;49.704;9.908;2022-07-03T14:30:36;0.40;;;0.30;;
27670;SDS011;15077;49.704;9.908;2022-07-03T14:33:22;0.60;;;0.30;;
27670;SDS011;15077;49.704;9.908;2022-07-03T14:35:48;0.90;;;0.55;;
27670;SDS011;15077;49.704;9.908;2022-07-03T14:38:14;0.60;;;0.40;;
27670;SDS011;15077;49.704;9.908;2022-07-03T14:40:40;0.68;;;0.43;;
27670;SDS011;15077;49.704;9.908;2022-07-03T14:43:05;0.43;;;0.30;;
27670;SDS011;15077;49.704;9.908;2022-07-03T14:45:31;1.20;;;0.40;;
27670;SDS011;15077;49.704;9.908;2022-07-03T14:47:57;1.88;;;0.40;;
27670;SDS011;15077;49.704;9.908;2022-07-03T14:50:22;0.40;;;0.40;;
27670;SDS011;15077;49.704;9.908;2022-07-03T14:52:48;0.82;;;0.38;;
27670;SDS011;15077;49.704;9.908;2022-07-03T14:55:15;0.82;;;0.40;;
27670;SDS011;15077;49.704;9.908;2022-07-03T15:00:17;1.40;;;0.47;;
27670;SDS011;15077;49.704;9.908;2022-07-03T15:05:41;1.95;;;0.73;;
27670;SDS011;15077;49.704;9.908;2022-07-03T15:10:54;2.15;;;0.80;;
27670;SDS011;15077;49.704;9.908;2022-07-03T15:13:27;2.22;;;0.90;;
27670;SDS011;15077;49.704;9.908;2022-07-03T15:15:55;1.23;;;0.90;;
27670;SDS011;15077;49.704;9.908;2022-07-03T15:18:21;1.73;;;1.00;;
27670;SDS011;15077;49.704;9.908;2022-07-03T15:20:49;1.10;;;0.80;;
27670;SDS011;15077;49.704;9.908;2022-07-03T15:23:17;1.13;;;0.80;;
27670;SDS011;15077;49.704;9.908;2022-07-03T15:25:46;4.07;;;1.20;;
27670;SDS011;15077;49.704;9.908;2022-07-03T15:28:13;1.33;;;0.90;;
27670;SDS011;15077;49.704;9.908;2022-07-03T15:30:52;1.83;;;0.95;;
27670;SDS011;15077;49.704;9.908;2022-07-03T15:33:19;1.75;;;0.63;;
27670;SDS011;15077;49.704;9.908;2022-07-03T15:38:35;1.30;;;0.73;;
27670;SDS011;15077;49.704;9.908;2022-07-03T15:41:19;1.38;;;0.77;;
27670;SDS011;15077;49.704;9.908;2022-07-03T15:47:03;0.40;;;0.40;;
27670;SDS011;15077;49.704;9.908;2022-07-03T15:49:40;2.42;;;0.60;;
27670;SDS011;15077;49.704;9.908;2022-07-03T15:55:04;0.73;;;0.52;;
27670;SDS011;15077;49.704;9.908;2022-07-03T16:00:25;0.70;;;0.40;;
27670;SDS011;15077;49.704;9.908;2022-07-03T16:05:51;0.45;;;0.35;;
27670;SDS011;15077;49.704;9.908;2022-07-03T16:08:21;1.00;;;0.60;;
27670;SDS011;15077;49.704;9.908;2022-07-03T16:10:50;0.52;;;0.40;;
27670;SDS011;15077;49.704;9.908;2022-07-03T16:13:18;1.20;;;0.73;;
27670;SDS011;15077;49.704;9.908;2022-07-03T16:15:50;0.75;;;0.30;;
27670;SDS011;15077;49.704;9.908;2022-07-03T16:18:17;0.85;;;0.30;;
27670;SDS011;15077;49.704;9.908;2022-07-03T16:20:46;0.75;;;0.50;;
27670;SDS011;15077;49.704;9.908;2022-07-03T16:23:14;1.40;;;0.47;;
27670;SDS011;15077;49.704;9.908;2022-07-03T16:25:41;0.30;;;0.30;;
27670;SDS011;15077;49.704;9.908;2022-07-03T16:28:08;0.43;;;0.32;;
27670;SDS011;15077;49.704;9.908;2022-07-03T16:30:39;1.25;;;0.40;;
27670;SDS011;15077;49.704;9.908;2022-07-03T16:33:11;0.50;;;0.40;;
27670;SDS011;15077;49.704;9.908;2022-07-03T16:35:47;0.60;;;0.40;;
27670;SDS011;15077;49.704;9.908;2022-07-03T16:41:07;0.38;;;0.28;;
27670;SDS011;15077;49.704;9.908;2022-07-03T16:43:41;0.85;;;0.45;;
27670;SDS011;15077;49.704;9.908;2022-07-03T16:46:11;0.95;;;0.40;;
27670;SDS011;15077;49.704;9.908;2022-07-03T16:48:41;0.40;;;0.40;;
27670;SDS011;15077;49.704;9.908;2022-07-03T16:51:14;0.30;;;0.30;;
27670;SDS011;15077;49.704;9.908;2022-07-03T16:53:42;0.43;;;0.20;;
27670;SDS011;15077;49.704;9.908;2022-07-03T16:56:09;0.13;;;0.13;;
27670;SDS011;15077;49.704;9.908;2022-07-03T16:58:38;0.63;;;0.28;;
27670;SDS011;15077;49.704;9.908;2022-07-03T17:01:05;1.27;;;0.40;;
27670;SDS011;15077;49.704;9.908;2022-07-03T17:03:35;0.80;;;0.60;;
27670;SDS011;15077;49.704;9.908;2022-07-03T17:06:05;0.47;;;0.40;;
27670;SDS011;15077;49.704;9.908;2022-07-03T17:08:32;2.17;;;0.47;;
27670;SDS011;15077;49.704;9.908;2022-07-03T17:11:01;0.82;;;0.50;;
27670;SDS011;15077;49.704;9.908;2022-07-03T17:13:27;1.40;;;0.32;;
27670;SDS011;15077;49.704;9.908;2022-07-03T17:15:55;1.85;;;0.50;;
27670;SDS011;15077;49.704;9.908;2022-07-03T17:18:25;0.75;;;0.40;;
27670;SDS011;15077;49.704;9.908;2022-07-03T17:21:02;1.15;;;0.60;;
27670;SDS011;15077;49.704;9.908;2022-07-03T17:23:30;1.25;;;0.50;;
27670;SDS011;15077;49.704;9.908;2022-07-03T17:26:02;0.45;;;0.40;;
27670;SDS011;15077;49.704;9.908;2022-07-03T17:31:26;0.57;;;0.30;;
27670;SDS011;15077;49.704;9.908;2022-07-03T17:33:59;0.52;;;0.40;;
27670;SDS011;15077;49.704;9.908;2022-07-03T17:36:35;1.42;;;0.32;;